sensor_id;sensor_type;location;lat;lon;timestamp;P1;durP1;ratioP1;P2;durP2;ratioP2
6999;SDS011;3540;53.242;10.408;2022-07-23T00:00:30;5.13;;;2.03;;
6999;SDS011;3540;53.242;10.408;2022-07-23T00:02:55;4.87;;;2.00;;
6999;SDS011;3540;53.242;10.408;2022-07-23T00:05:21;4.20;;;2.00;;
6999;SDS011;3540;53.242;10.408;2022-07-23T00:07:47;7.73;;;1.87;;
6999;SDS011;3540;53.242;10.408;2022-07-23T00:10:12;6.17;;;2.00;;
6999;SDS011;3540;53.242;10.408;2022-07-23T00:12:38;4.33;;;1.90;;
6999;SDS011;3540;53.242;10.408;2022-07-23T00:15:04;6.50;;;2.03;;
6999;SDS011;3540;53.242;10.408;2022-07-23T00:17:31;6.00;;;2.20;;
6999;SDS011;3540;53.242;10.408;2022-07-23T00:19:56;6.30;;;2.13;;
6999;SDS011;3540;53.242;10.408;2022-07-23T00:22:22;4.70;;;1.90;;
6999;SDS011;3540;53.242;10.408;2022-07-23T00:24:48;9.87;;;2.37;;
6999;SDS011;3540;53.242;10.408;2022-07-23T00:27:14;4.97;;;1.77;;
6999;SDS011;3540;53.242;10.408;2022-07-23T00:29:39;5.77;;;1.83;;
6999;SDS011;3540;53.242;10.408;2022-07-23T00:32:05;4.07;;;2.03;;
6999;SDS011;3540;53.242;10.408;2022-07-23T00:34:30;6.97;;;2.40;;
6999;SDS011;3540;53.242;10.408;2022-07-23T00:36:56;7.43;;;2.10;;
6999;SDS011;3540;53.242;10.408;2022-07-23T00:39:22;4.10;;;1.90;;
6999;SDS011;3540;53.242;10.408;2022-07-23T00:41:48;7.23;;;2.03;;
6999;SDS011;3540;53.242;10.408;2022-07-23T00:44:15;6.70;;;2.20;;
6999;SDS011;3540;53.242;10.408;2022-07-23T00:46:49;4.13;;;1.90;;
6999;SDS011;3540;53.242;10.408;2022-07-23T00:49:19;5.13;;;2.23;;
6999;SDS011;3540;53.242;10.408;2022-07-23T00:51:46;5.87;;;2.13;;
6999;SDS011;3540;53.242;10.408;2022-07-23T00:54:13;4.00;;;2.00;;
6999;SDS011;3540;53.242;10.408;2022-07-23T00:56:39;5.73;;;2.03;;
6999;SDS011;3540;53.242;10.408;2022-07-23T00:59:06;5.17;;;1.70;;
6999;SDS011;3540;53.242;10.408;2022-07-23T01:01:32;4.70;;;1.93;;
6999;SDS011;3540;53.242;10.408;2022-07-23T01:03:58;4.33;;;1.90;;
6999;SDS011;3540;53.242;10.408;2022-07-23T01:06:23;6.57;;;2.07;;
6999;SDS011;3540;53.242;10.408;2022-07-23T01:08:49;4.33;;;1.73;;
6999;SDS011;3540;53.242;10.408;2022-07-23T01:11:14;4.87;;;2.10;;
6999;SDS011;3540;53.242;10.408;2022-07-23T01:13:42;5.87;;;1.83;;
6999;SDS011;3540;53.242;10.408;2022-07-23T01:16:08;6.60;;;2.30;;
6999;SDS011;3540;53.242;10.408;2022-07-23T01:18:34;4.63;;;2.10;;
6999;SDS011;3540;53.242;10.408;2022-07-23T01:20:59;4.23;;;2.00;;
6999;SDS011;3540;53.242;10.408;2022-07-23T01:23:25;6.33;;;1.83;;
6999;SDS011;3540;53.242;10.408;2022-07-23T01:25:54;5.63;;;2.10;;
6999;SDS011;3540;53.242;10.408;2022-07-23T01:28:20;2.83;;;1.97;;
6999;SDS011;3540;53.242;10.408;2022-07-23T01:30:46;4.73;;;2.00;;
6999;SDS011;3540;53.242;10.408;2022-07-23T01:33:13;5.50;;;2.23;;
6999;SDS011;3540;53.242;10.408;2022-07-23T01:35:39;4.57;;;1.80;;
6999;SDS011;3540;53.242;10.408;2022-07-23T01:38:05;5.83;;;2.10;;
6999;SDS011;3540;53.242;10.408;2022-07-23T01:40:30;4.43;;;2.03;;
6999;SDS011;3540;53.242;10.408;2022-07-23T01:42:56;4.43;;;2.03;;
6999;SDS011;3540;53.242;10.408;2022-07-23T01:45:22;8.77;;;1.97;;
6999;SDS011;3540;53.242;10.408;2022-07-23T01:47:48;6.43;;;1.83;;
6999;SDS011;3540;53.242;10.408;2022-07-23T01:50:13;6.37;;;2.00;;
6999;SDS011;3540;53.242;10.408;2022-07-23T01:52:39;4.23;;;1.83;;
6999;SDS011;3540;53.242;10.408;2022-07-23T01:55:05;8.60;;;2.20;;
6999;SDS011;3540;53.242;10.408;2022-07-23T01:57:31;3.67;;;1.87;;
6999;SDS011;3540;53.242;10.408;2022-07-23T01:59:57;6.03;;;1.57;;
6999;SDS011;3540;53.242;10.408;2022-07-23T02:02:23;6.20;;;2.00;;
6999;SDS011;3540;53.242;10.408;2022-07-23T02:04:48;4.80;;;1.90;;
6999;SDS011;3540;53.242;10.408;2022-07-23T02:07:14;5.83;;;2.00;;
6999;SDS011;3540;53.242;10.408;2022-07-23T02:09:39;6.20;;;2.17;;
6999;SDS011;3540;53.242;10.408;2022-07-23T02:12:05;5.43;;;2.17;;
6999;SDS011;3540;53.242;10.408;2022-07-23T02:14:31;4.83;;;2.10;;
6999;SDS011;3540;53.242;10.408;2022-07-23T02:16:56;5.60;;;1.97;;
6999;SDS011;3540;53.242;10.408;2022-07-23T02:19:22;5.83;;;2.27;;
6999;SDS011;3540;53.242;10.408;2022-07-23T02:21:48;6.03;;;2.30;;
6999;SDS011;3540;53.242;10.408;2022-07-23T02:24:14;6.77;;;2.07;;
6999;SDS011;3540;53.242;10.408;2022-07-23T02:26:40;4.17;;;2.07;;
6999;SDS011;3540;53.242;10.408;2022-07-23T02:29:05;2.90;;;1.87;;
6999;SDS011;3540;53.242;10.408;2022-07-23T02:31:32;4.80;;;1.80;;
6999;SDS011;3540;53.242;10.408;2022-07-23T02:33:58;4.33;;;2.27;;
6999;SDS011;3540;53.242;10.408;2022-07-23T02:36:24;5.10;;;2.30;;
6999;SDS011;3540;53.242;10.408;2022-07-23T02:38:49;4.10;;;2.00;;
6999;SDS011;3540;53.242;10.408;2022-07-23T02:41:15;5.57;;;2.20;;
6999;SDS011;3540;53.242;10.408;2022-07-23T02:43:41;5.83;;;2.40;;
6999;SDS011;3540;53.242;10.408;2022-07-23T02:46:06;5.43;;;2.10;;
6999;SDS011;3540;53.242;10.408;2022-07-23T02:48:32;5.83;;;2.20;;
6999;SDS011;3540;53.242;10.408;2022-07-23T02:50:58;9.40;;;2.17;;
6999;SDS011;3540;53.242;10.408;2022-07-23T02:53:24;5.93;;;2.10;;
6999;SDS011;3540;53.242;10.408;2022-07-23T02:55:50;5.00;;;2.30;;
6999;SDS011;3540;53.242;10.408;2022-07-23T02:58:15;4.87;;;2.20;;
6999;SDS011;3540;53.242;10.408;2022-07-23T03:00:41;6.27;;;2.20;;
6999;SDS011;3540;53.242;10.408;2022-07-23T03:03:07;5.23;;;2.00;;
6999;SDS011;3540;53.242;10.408;2022-07-23T03:05:33;5.40;;;2.20;;
6999;SDS011;3540;53.242;10.408;2022-07-23T03:07:59;6.70;;;2.40;;
6999;SDS011;3540;53.242;10.408;2022-07-23T03:10:25;4.43;;;2.00;;
6999;SDS011;3540;53.242;10.408;2022-07-23T03:12:51;4.57;;;2.23;;
6999;SDS011;3540;53.242;10.408;2022-07-23T03:15:16;5.03;;;2.13;;
6999;SDS011;3540;53.242;10.408;2022-07-23T03:17:42;4.47;;;2.00;;
6999;SDS011;3540;53.242;10.408;2022-07-23T03:20:08;6.10;;;2.37;;
6999;SDS011;3540;53.242;10.408;2022-07-23T03:22:34;7.37;;;2.07;;
6999;SDS011;3540;53.242;10.408;2022-07-23T03:25:01;5.90;;;2.10;;
6999;SDS011;3540;53.242;10.408;2022-07-23T03:27:28;8.77;;;2.33;;
6999;SDS011;3540;53.242;10.408;2022-07-23T03:29:55;9.20;;;2.43;;
6999;SDS011;3540;53.242;10.408;2022-07-23T03:32:23;4.50;;;2.03;;
6999;SDS011;3540;53.242;10.408;2022-07-23T03:34:49;6.50;;;2.27;;
6999;SDS011;3540;53.242;10.408;2022-07-23T03:37:16;7.40;;;2.70;;
6999;SDS011;3540;53.242;10.408;2022-07-23T03:39:42;6.87;;;2.60;;
6999;SDS011;3540;53.242;10.408;2022-07-23T03:42:09;7.10;;;2.17;;
6999;SDS011;3540;53.242;10.408;2022-07-23T03:44:34;5.23;;;2.27;;
6999;SDS011;3540;53.242;10.408;2022-07-23T03:47:02;5.13;;;2.07;;
6999;SDS011;3540;53.242;10.408;2022-07-23T03:49:28;8.00;;;2.60;;
6999;SDS011;3540;53.242;10.408;2022-07-23T03:51:54;4.10;;;2.10;;
6999;SDS011;3540;53.242;10.408;2022-07-23T03:54:19;4.37;;;2.03;;
6999;SDS011;3540;53.242;10.408;2022-07-23T03:56:45;5.53;;;2.17;;
6999;SDS011;3540;53.242;10.408;2022-07-23T03:59:11;5.60;;;2.33;;
6999;SDS011;3540;53.242;10.408;2022-07-23T04:01:36;4.37;;;2.30;;
6999;SDS011;3540;53.242;10.408;2022-07-23T04:04:02;3.77;;;1.80;;
6999;SDS011;3540;53.242;10.408;2022-07-23T04:06:28;8.70;;;3.60;;
6999;SDS011;3540;53.242;10.408;2022-07-23T04:08:54;7.83;;;2.33;;
6999;SDS011;3540;53.242;10.408;2022-07-23T04:11:20;4.13;;;2.00;;
6999;SDS011;3540;53.242;10.408;2022-07-23T04:13:46;2.00;;;1.70;;
6999;SDS011;3540;53.242;10.408;2022-07-23T04:16:12;6.00;;;2.30;;
6999;SDS011;3540;53.242;10.408;2022-07-23T04:18:37;5.50;;;2.10;;
6999;SDS011;3540;53.242;10.408;2022-07-23T04:21:03;6.53;;;2.20;;
6999;SDS011;3540;53.242;10.408;2022-07-23T04:23:29;6.73;;;2.20;;
6999;SDS011;3540;53.242;10.408;2022-07-23T04:25:55;4.23;;;2.17;;
6999;SDS011;3540;53.242;10.408;2022-07-23T04:28:20;7.57;;;2.00;;
6999;SDS011;3540;53.242;10.408;2022-07-23T04:30:46;5.57;;;2.27;;
6999;SDS011;3540;53.242;10.408;2022-07-23T04:33:12;5.53;;;1.97;;
6999;SDS011;3540;53.242;10.408;2022-07-23T04:35:37;6.03;;;1.90;;
6999;SDS011;3540;53.242;10.408;2022-07-23T04:38:03;6.47;;;2.03;;
6999;SDS011;3540;53.242;10.408;2022-07-23T04:40:29;3.60;;;2.07;;
6999;SDS011;3540;53.242;10.408;2022-07-23T04:42:55;5.40;;;2.00;;
6999;SDS011;3540;53.242;10.408;2022-07-23T04:45:21;3.73;;;1.90;;
6999;SDS011;3540;53.242;10.408;2022-07-23T04:47:48;6.40;;;2.20;;
6999;SDS011;3540;53.242;10.408;2022-07-23T04:50:14;3.77;;;1.70;;
6999;SDS011;3540;53.242;10.408;2022-07-23T04:52:43;5.10;;;2.13;;
6999;SDS011;3540;53.242;10.408;2022-07-23T04:55:09;6.40;;;2.47;;
6999;SDS011;3540;53.242;10.408;2022-07-23T04:57:35;5.90;;;2.60;;
6999;SDS011;3540;53.242;10.408;2022-07-23T05:00:01;7.63;;;2.57;;
6999;SDS011;3540;53.242;10.408;2022-07-23T05:02:27;3.70;;;2.10;;
6999;SDS011;3540;53.242;10.408;2022-07-23T05:04:53;4.50;;;2.30;;
6999;SDS011;3540;53.242;10.408;2022-07-23T05:07:19;3.33;;;2.00;;
6999;SDS011;3540;53.242;10.408;2022-07-23T05:09:44;4.13;;;2.37;;
6999;SDS011;3540;53.242;10.408;2022-07-23T05:12:10;5.53;;;2.30;;
6999;SDS011;3540;53.242;10.408;2022-07-23T05:14:36;4.83;;;2.30;;
6999;SDS011;3540;53.242;10.408;2022-07-23T05:17:01;4.60;;;2.43;;
6999;SDS011;3540;53.242;10.408;2022-07-23T05:19:27;3.67;;;2.17;;
6999;SDS011;3540;53.242;10.408;2022-07-23T05:21:52;5.03;;;2.50;;
6999;SDS011;3540;53.242;10.408;2022-07-23T05:24:21;5.33;;;2.77;;
6999;SDS011;3540;53.242;10.408;2022-07-23T05:26:47;4.60;;;2.20;;
6999;SDS011;3540;53.242;10.408;2022-07-23T05:29:12;5.50;;;2.90;;
6999;SDS011;3540;53.242;10.408;2022-07-23T05:31:38;5.93;;;2.30;;
6999;SDS011;3540;53.242;10.408;2022-07-23T05:34:03;5.93;;;2.43;;
6999;SDS011;3540;53.242;10.408;2022-07-23T05:36:30;7.47;;;2.87;;
6999;SDS011;3540;53.242;10.408;2022-07-23T05:38:57;6.43;;;2.50;;
6999;SDS011;3540;53.242;10.408;2022-07-23T05:41:22;6.00;;;2.33;;
6999;SDS011;3540;53.242;10.408;2022-07-23T05:43:48;6.87;;;2.70;;
6999;SDS011;3540;53.242;10.408;2022-07-23T05:46:14;5.37;;;2.67;;
6999;SDS011;3540;53.242;10.408;2022-07-23T05:48:39;8.27;;;2.30;;
6999;SDS011;3540;53.242;10.408;2022-07-23T05:51:07;8.23;;;2.43;;
6999;SDS011;3540;53.242;10.408;2022-07-23T05:53:33;5.67;;;2.70;;
6999;SDS011;3540;53.242;10.408;2022-07-23T05:56:00;4.60;;;2.60;;
6999;SDS011;3540;53.242;10.408;2022-07-23T05:58:26;6.63;;;2.47;;
6999;SDS011;3540;53.242;10.408;2022-07-23T06:00:52;5.50;;;2.60;;
6999;SDS011;3540;53.242;10.408;2022-07-23T06:03:17;5.57;;;2.30;;
6999;SDS011;3540;53.242;10.408;2022-07-23T06:05:43;3.70;;;2.13;;
6999;SDS011;3540;53.242;10.408;2022-07-23T06:08:08;11.27;;;2.30;;
6999;SDS011;3540;53.242;10.408;2022-07-23T06:10:34;6.63;;;2.20;;
6999;SDS011;3540;53.242;10.408;2022-07-23T06:13:00;4.50;;;2.40;;
6999;SDS011;3540;53.242;10.408;2022-07-23T06:15:25;9.60;;;2.60;;
6999;SDS011;3540;53.242;10.408;2022-07-23T06:17:51;5.90;;;2.30;;
6999;SDS011;3540;53.242;10.408;2022-07-23T06:20:17;6.37;;;2.40;;
6999;SDS011;3540;53.242;10.408;2022-07-23T06:22:42;6.57;;;2.80;;
6999;SDS011;3540;53.242;10.408;2022-07-23T06:25:08;4.87;;;2.20;;
6999;SDS011;3540;53.242;10.408;2022-07-23T06:27:34;4.57;;;2.30;;
6999;SDS011;3540;53.242;10.408;2022-07-23T06:29:59;5.47;;;2.30;;
6999;SDS011;3540;53.242;10.408;2022-07-23T06:32:25;6.30;;;2.30;;
6999;SDS011;3540;53.242;10.408;2022-07-23T06:34:50;4.30;;;2.00;;
6999;SDS011;3540;53.242;10.408;2022-07-23T06:37:16;4.00;;;1.97;;
6999;SDS011;3540;53.242;10.408;2022-07-23T06:39:42;6.27;;;1.90;;
6999;SDS011;3540;53.242;10.408;2022-07-23T06:42:07;6.90;;;2.17;;
6999;SDS011;3540;53.242;10.408;2022-07-23T06:44:35;6.60;;;2.00;;
6999;SDS011;3540;53.242;10.408;2022-07-23T06:47:00;8.07;;;2.23;;
6999;SDS011;3540;53.242;10.408;2022-07-23T06:49:26;4.97;;;1.77;;
6999;SDS011;3540;53.242;10.408;2022-07-23T06:51:52;6.23;;;2.03;;
6999;SDS011;3540;53.242;10.408;2022-07-23T06:54:17;5.33;;;2.20;;
6999;SDS011;3540;53.242;10.408;2022-07-23T06:56:43;3.73;;;1.80;;
6999;SDS011;3540;53.242;10.408;2022-07-23T06:59:08;8.53;;;2.40;;
6999;SDS011;3540;53.242;10.408;2022-07-23T07:01:34;6.87;;;2.13;;
6999;SDS011;3540;53.242;10.408;2022-07-23T07:04:00;6.00;;;2.07;;
6999;SDS011;3540;53.242;10.408;2022-07-23T07:06:25;6.37;;;2.03;;
6999;SDS011;3540;53.242;10.408;2022-07-23T07:08:51;5.03;;;2.07;;
6999;SDS011;3540;53.242;10.408;2022-07-23T07:11:16;7.97;;;2.00;;
6999;SDS011;3540;53.242;10.408;2022-07-23T07:13:42;4.47;;;1.57;;
6999;SDS011;3540;53.242;10.408;2022-07-23T07:16:07;3.20;;;1.60;;
6999;SDS011;3540;53.242;10.408;2022-07-23T07:18:33;4.20;;;1.63;;
6999;SDS011;3540;53.242;10.408;2022-07-23T07:20:59;3.17;;;1.70;;
6999;SDS011;3540;53.242;10.408;2022-07-23T07:23:24;3.37;;;1.50;;
6999;SDS011;3540;53.242;10.408;2022-07-23T07:25:50;4.40;;;1.53;;
6999;SDS011;3540;53.242;10.408;2022-07-23T07:28:16;5.10;;;1.60;;
6999;SDS011;3540;53.242;10.408;2022-07-23T07:30:41;4.83;;;1.70;;
6999;SDS011;3540;53.242;10.408;2022-07-23T07:33:07;2.57;;;1.47;;
6999;SDS011;3540;53.242;10.408;2022-07-23T07:35:32;4.50;;;1.60;;
6999;SDS011;3540;53.242;10.408;2022-07-23T07:37:59;3.47;;;1.60;;
6999;SDS011;3540;53.242;10.408;2022-07-23T07:40:25;4.37;;;1.63;;
6999;SDS011;3540;53.242;10.408;2022-07-23T07:42:52;4.57;;;1.43;;
6999;SDS011;3540;53.242;10.408;2022-07-23T07:45:21;4.97;;;1.70;;
6999;SDS011;3540;53.242;10.408;2022-07-23T07:47:48;4.73;;;1.50;;
6999;SDS011;3540;53.242;10.408;2022-07-23T07:50:13;1.97;;;1.40;;
6999;SDS011;3540;53.242;10.408;2022-07-23T07:52:39;3.50;;;1.43;;
6999;SDS011;3540;53.242;10.408;2022-07-23T07:55:05;5.30;;;1.53;;
6999;SDS011;3540;53.242;10.408;2022-07-23T07:57:32;3.13;;;1.20;;
6999;SDS011;3540;53.242;10.408;2022-07-23T07:59:58;2.50;;;1.30;;
6999;SDS011;3540;53.242;10.408;2022-07-23T08:02:24;8.60;;;1.77;;
6999;SDS011;3540;53.242;10.408;2022-07-23T08:04:50;1.57;;;1.13;;
6999;SDS011;3540;53.242;10.408;2022-07-23T08:07:17;3.43;;;1.53;;
6999;SDS011;3540;53.242;10.408;2022-07-23T08:09:43;2.40;;;1.37;;
6999;SDS011;3540;53.242;10.408;2022-07-23T08:12:08;2.70;;;1.43;;
6999;SDS011;3540;53.242;10.408;2022-07-23T08:14:34;4.03;;;1.60;;
6999;SDS011;3540;53.242;10.408;2022-07-23T08:16:59;4.50;;;1.40;;
6999;SDS011;3540;53.242;10.408;2022-07-23T08:19:25;2.10;;;1.20;;
6999;SDS011;3540;53.242;10.408;2022-07-23T08:21:51;4.10;;;1.53;;
6999;SDS011;3540;53.242;10.408;2022-07-23T08:24:16;2.57;;;1.30;;
6999;SDS011;3540;53.242;10.408;2022-07-23T08:26:42;1.40;;;1.00;;
6999;SDS011;3540;53.242;10.408;2022-07-23T08:29:08;2.40;;;1.40;;
6999;SDS011;3540;53.242;10.408;2022-07-23T08:31:33;3.77;;;1.40;;
6999;SDS011;3540;53.242;10.408;2022-07-23T08:33:59;3.77;;;1.50;;
6999;SDS011;3540;53.242;10.408;2022-07-23T08:36:25;2.87;;;1.27;;
6999;SDS011;3540;53.242;10.408;2022-07-23T08:38:57;4.07;;;1.50;;
6999;SDS011;3540;53.242;10.408;2022-07-23T08:41:24;3.70;;;1.37;;
6999;SDS011;3540;53.242;10.408;2022-07-23T08:43:50;3.67;;;1.40;;
6999;SDS011;3540;53.242;10.408;2022-07-23T08:46:16;2.43;;;1.30;;
6999;SDS011;3540;53.242;10.408;2022-07-23T08:48:44;5.87;;;1.30;;
6999;SDS011;3540;53.242;10.408;2022-07-23T08:51:13;3.30;;;1.27;;
6999;SDS011;3540;53.242;10.408;2022-07-23T08:53:38;2.70;;;1.20;;
6999;SDS011;3540;53.242;10.408;2022-07-23T08:56:06;4.47;;;1.40;;
6999;SDS011;3540;53.242;10.408;2022-07-23T08:58:32;5.13;;;1.67;;
6999;SDS011;3540;53.242;10.408;2022-07-23T09:00:58;3.13;;;1.53;;
6999;SDS011;3540;53.242;10.408;2022-07-23T09:03:28;4.10;;;1.47;;
6999;SDS011;3540;53.242;10.408;2022-07-23T09:05:56;2.13;;;1.40;;
6999;SDS011;3540;53.242;10.408;2022-07-23T09:08:27;3.57;;;1.60;;
6999;SDS011;3540;53.242;10.408;2022-07-23T09:11:01;3.10;;;1.40;;
6999;SDS011;3540;53.242;10.408;2022-07-23T09:13:29;3.07;;;1.50;;
6999;SDS011;3540;53.242;10.408;2022-07-23T09:16:18;2.33;;;1.50;;
6999;SDS011;3540;53.242;10.408;2022-07-23T09:18:51;2.50;;;1.50;;
6999;SDS011;3540;53.242;10.408;2022-07-23T09:21:28;2.47;;;1.30;;
6999;SDS011;3540;53.242;10.408;2022-07-23T09:26:29;4.57;;;1.60;;
6999;SDS011;3540;53.242;10.408;2022-07-23T09:31:27;2.17;;;1.37;;
6999;SDS011;3540;53.242;10.408;2022-07-23T09:34:06;2.43;;;1.70;;
6999;SDS011;3540;53.242;10.408;2022-07-23T09:36:33;4.60;;;1.60;;
6999;SDS011;3540;53.242;10.408;2022-07-23T09:38:59;2.77;;;1.43;;
6999;SDS011;3540;53.242;10.408;2022-07-23T09:41:25;2.97;;;1.33;;
6999;SDS011;3540;53.242;10.408;2022-07-23T09:44:06;1.80;;;1.30;;
6999;SDS011;3540;53.242;10.408;2022-07-23T09:46:34;2.37;;;1.40;;
6999;SDS011;3540;53.242;10.408;2022-07-23T09:48:59;2.73;;;1.50;;
6999;SDS011;3540;53.242;10.408;2022-07-23T09:51:58;1.67;;;1.40;;
6999;SDS011;3540;53.242;10.408;2022-07-23T09:54:44;2.80;;;1.30;;
6999;SDS011;3540;53.242;10.408;2022-07-23T09:57:10;1.40;;;1.30;;
6999;SDS011;3540;53.242;10.408;2022-07-23T09:59:41;2.33;;;1.40;;
6999;SDS011;3540;53.242;10.408;2022-07-23T10:02:09;3.00;;;1.40;;
6999;SDS011;3540;53.242;10.408;2022-07-23T10:04:37;1.53;;;1.30;;
6999;SDS011;3540;53.242;10.408;2022-07-23T10:07:04;1.57;;;1.30;;
6999;SDS011;3540;53.242;10.408;2022-07-23T10:09:35;3.63;;;1.40;;
6999;SDS011;3540;53.242;10.408;2022-07-23T10:12:03;1.83;;;1.23;;
6999;SDS011;3540;53.242;10.408;2022-07-23T10:14:52;3.97;;;1.37;;
6999;SDS011;3540;53.242;10.408;2022-07-23T10:17:18;1.97;;;1.20;;
6999;SDS011;3540;53.242;10.408;2022-07-23T10:19:44;2.20;;;1.30;;
6999;SDS011;3540;53.242;10.408;2022-07-23T10:22:11;2.70;;;1.13;;
6999;SDS011;3540;53.242;10.408;2022-07-23T10:27:43;1.50;;;1.20;;
6999;SDS011;3540;53.242;10.408;2022-07-23T10:30:21;2.77;;;1.03;;
6999;SDS011;3540;53.242;10.408;2022-07-23T10:33:41;2.17;;;1.30;;
6999;SDS011;3540;53.242;10.408;2022-07-23T10:36:07;1.27;;;1.10;;
6999;SDS011;3540;53.242;10.408;2022-07-23T10:41:47;2.47;;;1.20;;
6999;SDS011;3540;53.242;10.408;2022-07-23T10:44:14;2.40;;;1.30;;
6999;SDS011;3540;53.242;10.408;2022-07-23T10:46:54;1.10;;;0.93;;
6999;SDS011;3540;53.242;10.408;2022-07-23T10:49:30;1.33;;;1.03;;
6999;SDS011;3540;53.242;10.408;2022-07-23T10:57:26;1.27;;;1.10;;
6999;SDS011;3540;53.242;10.408;2022-07-23T11:02:29;1.37;;;1.10;;
6999;SDS011;3540;53.242;10.408;2022-07-23T11:04:59;1.93;;;1.10;;
6999;SDS011;3540;53.242;10.408;2022-07-23T11:07:35;1.00;;;0.90;;
6999;SDS011;3540;53.242;10.408;2022-07-23T11:34:44;2.73;;;1.00;;
6999;SDS011;3540;53.242;10.408;2022-07-23T11:37:13;1.10;;;1.00;;
6999;SDS011;3540;53.242;10.408;2022-07-23T11:40:12;2.00;;;1.10;;
6999;SDS011;3540;53.242;10.408;2022-07-23T11:42:40;3.45;;;1.50;;
6999;SDS011;3540;53.242;10.408;2022-07-23T11:45:25;1.15;;;1.05;;
6999;SDS011;3540;53.242;10.408;2022-07-23T11:48:03;1.45;;;0.90;;
6999;SDS011;3540;53.242;10.408;2022-07-23T11:50:30;3.80;;;1.00;;
6999;SDS011;3540;53.242;10.408;2022-07-23T11:52:55;1.60;;;1.15;;
6999;SDS011;3540;53.242;10.408;2022-07-23T11:55:22;1.50;;;1.03;;
6999;SDS011;3540;53.242;10.408;2022-07-23T11:57:47;1.40;;;0.90;;
6999;SDS011;3540;53.242;10.408;2022-07-23T12:00:25;2.37;;;1.00;;
6999;SDS011;3540;53.242;10.408;2022-07-23T12:02:52;1.57;;;1.10;;
6999;SDS011;3540;53.242;10.408;2022-07-23T12:05:25;1.17;;;1.07;;
6999;SDS011;3540;53.242;10.408;2022-07-23T12:07:56;1.33;;;1.10;;
6999;SDS011;3540;53.242;10.408;2022-07-23T12:12:53;2.73;;;0.90;;
6999;SDS011;3540;53.242;10.408;2022-07-23T12:15:25;4.30;;;1.10;;
6999;SDS011;3540;53.242;10.408;2022-07-23T12:17:57;1.00;;;0.90;;
6999;SDS011;3540;53.242;10.408;2022-07-23T12:20:26;1.53;;;1.00;;
6999;SDS011;3540;53.242;10.408;2022-07-23T12:22:58;1.73;;;0.90;;
6999;SDS011;3540;53.242;10.408;2022-07-23T12:25:26;1.70;;;1.10;;
6999;SDS011;3540;53.242;10.408;2022-07-23T12:28:01;0.90;;;0.90;;
6999;SDS011;3540;53.242;10.408;2022-07-23T12:30:28;0.93;;;0.93;;
6999;SDS011;3540;53.242;10.408;2022-07-23T12:32:58;1.10;;;1.00;;
6999;SDS011;3540;53.242;10.408;2022-07-23T12:35:29;1.00;;;0.90;;
6999;SDS011;3540;53.242;10.408;2022-07-23T12:38:02;1.35;;;1.00;;
6999;SDS011;3540;53.242;10.408;2022-07-23T12:40:34;1.10;;;0.98;;
6999;SDS011;3540;53.242;10.408;2022-07-23T12:46:33;1.55;;;0.90;;
6999;SDS011;3540;53.242;10.408;2022-07-23T12:48:29;1.27;;;1.10;;
6999;SDS011;3540;53.242;10.408;2022-07-23T12:51:18;1.13;;;1.00;;
6999;SDS011;3540;53.242;10.408;2022-07-23T12:56:26;1.70;;;1.00;;
6999;SDS011;3540;53.242;10.408;2022-07-23T12:58:57;1.07;;;0.90;;
6999;SDS011;3540;53.242;10.408;2022-07-23T13:01:32;1.50;;;0.93;;
6999;SDS011;3540;53.242;10.408;2022-07-23T13:06:34;1.98;;;1.13;;
6999;SDS011;3540;53.242;10.408;2022-07-23T13:09:09;1.27;;;0.88;;
6999;SDS011;3540;53.242;10.408;2022-07-23T13:11:37;2.23;;;1.00;;
6999;SDS011;3540;53.242;10.408;2022-07-23T13:14:03;0.88;;;0.82;;
6999;SDS011;3540;53.242;10.408;2022-07-23T13:16:30;0.90;;;0.85;;
6999;SDS011;3540;53.242;10.408;2022-07-23T13:18:56;2.00;;;1.20;;
6999;SDS011;3540;53.242;10.408;2022-07-23T13:21:23;1.25;;;0.90;;
6999;SDS011;3540;53.242;10.408;2022-07-23T13:23:49;1.60;;;1.13;;
6999;SDS011;3540;53.242;10.408;2022-07-23T13:26:15;1.58;;;1.05;;
6999;SDS011;3540;53.242;10.408;2022-07-23T13:28:40;1.77;;;1.00;;
6999;SDS011;3540;53.242;10.408;2022-07-23T13:31:06;1.13;;;0.98;;
6999;SDS011;3540;53.242;10.408;2022-07-23T13:33:32;1.73;;;0.95;;
6999;SDS011;3540;53.242;10.408;2022-07-23T13:35:58;2.03;;;0.98;;
6999;SDS011;3540;53.242;10.408;2022-07-23T13:38:24;1.27;;;1.02;;
6999;SDS011;3540;53.242;10.408;2022-07-23T13:40:51;0.95;;;0.90;;
6999;SDS011;3540;53.242;10.408;2022-07-23T13:43:18;2.65;;;0.90;;
6999;SDS011;3540;53.242;10.408;2022-07-23T13:45:47;1.35;;;0.80;;
6999;SDS011;3540;53.242;10.408;2022-07-23T13:48:13;1.37;;;0.83;;
6999;SDS011;3540;53.242;10.408;2022-07-23T13:50:40;0.80;;;0.80;;
6999;SDS011;3540;53.242;10.408;2022-07-23T13:53:07;1.57;;;1.00;;
6999;SDS011;3540;53.242;10.408;2022-07-23T13:55:36;3.90;;;1.10;;
6999;SDS011;3540;53.242;10.408;2022-07-23T13:58:03;1.40;;;1.08;;
6999;SDS011;3540;53.242;10.408;2022-07-23T14:00:29;1.23;;;0.87;;
6999;SDS011;3540;53.242;10.408;2022-07-23T14:02:56;1.05;;;0.80;;
6999;SDS011;3540;53.242;10.408;2022-07-23T14:05:22;1.33;;;1.00;;
6999;SDS011;3540;53.242;10.408;2022-07-23T14:07:48;2.15;;;1.02;;
6999;SDS011;3540;53.242;10.408;2022-07-23T14:10:15;1.00;;;0.90;;
6999;SDS011;3540;53.242;10.408;2022-07-23T14:12:42;1.77;;;1.00;;
6999;SDS011;3540;53.242;10.408;2022-07-23T14:15:09;1.50;;;0.90;;
6999;SDS011;3540;53.242;10.408;2022-07-23T14:17:38;1.92;;;0.98;;
6999;SDS011;3540;53.242;10.408;2022-07-23T14:20:05;0.88;;;0.88;;
6999;SDS011;3540;53.242;10.408;2022-07-23T14:22:32;1.23;;;1.00;;
6999;SDS011;3540;53.242;10.408;2022-07-23T14:24:58;2.53;;;1.10;;
6999;SDS011;3540;53.242;10.408;2022-07-23T14:27:25;2.13;;;1.00;;
6999;SDS011;3540;53.242;10.408;2022-07-23T14:29:52;2.10;;;1.15;;
6999;SDS011;3540;53.242;10.408;2022-07-23T14:32:17;1.48;;;1.08;;
6999;SDS011;3540;53.242;10.408;2022-07-23T14:34:43;0.95;;;0.93;;
6999;SDS011;3540;53.242;10.408;2022-07-23T14:37:09;2.35;;;1.00;;
6999;SDS011;3540;53.242;10.408;2022-07-23T14:39:39;2.78;;;1.52;;
6999;SDS011;3540;53.242;10.408;2022-07-23T14:42:06;1.98;;;1.02;;
6999;SDS011;3540;53.242;10.408;2022-07-23T14:44:32;1.88;;;1.10;;
6999;SDS011;3540;53.242;10.408;2022-07-23T14:46:58;1.10;;;1.00;;
6999;SDS011;3540;53.242;10.408;2022-07-23T14:49:25;1.60;;;1.00;;
6999;SDS011;3540;53.242;10.408;2022-07-23T14:51:51;1.35;;;1.00;;
6999;SDS011;3540;53.242;10.408;2022-07-23T14:54:17;1.63;;;0.97;;
6999;SDS011;3540;53.242;10.408;2022-07-23T14:56:45;1.80;;;1.10;;
6999;SDS011;3540;53.242;10.408;2022-07-23T14:59:11;2.97;;;1.20;;
6999;SDS011;3540;53.242;10.408;2022-07-23T15:01:37;2.80;;;1.10;;
6999;SDS011;3540;53.242;10.408;2022-07-23T15:04:03;2.15;;;1.10;;
6999;SDS011;3540;53.242;10.408;2022-07-23T15:06:30;2.58;;;1.13;;
6999;SDS011;3540;53.242;10.408;2022-07-23T15:08:56;1.98;;;1.20;;
6999;SDS011;3540;53.242;10.408;2022-07-23T15:11:22;2.10;;;1.25;;
6999;SDS011;3540;53.242;10.408;2022-07-23T15:13:47;1.70;;;1.23;;
6999;SDS011;3540;53.242;10.408;2022-07-23T15:16:13;1.30;;;1.20;;
6999;SDS011;3540;53.242;10.408;2022-07-23T15:18:42;1.25;;;1.00;;
6999;SDS011;3540;53.242;10.408;2022-07-23T15:21:07;1.42;;;1.00;;
6999;SDS011;3540;53.242;10.408;2022-07-23T15:23:33;3.30;;;1.13;;
6999;SDS011;3540;53.242;10.408;2022-07-23T15:26:00;2.45;;;1.30;;
6999;SDS011;3540;53.242;10.408;2022-07-23T15:28:26;0.90;;;0.90;;
6999;SDS011;3540;53.242;10.408;2022-07-23T15:30:52;2.58;;;1.20;;
6999;SDS011;3540;53.242;10.408;2022-07-23T15:33:17;1.35;;;1.00;;
6999;SDS011;3540;53.242;10.408;2022-07-23T15:35:44;2.38;;;1.23;;
6999;SDS011;3540;53.242;10.408;2022-07-23T15:38:09;2.47;;;1.20;;
6999;SDS011;3540;53.242;10.408;2022-07-23T15:40:35;1.73;;;1.10;;
6999;SDS011;3540;53.242;10.408;2022-07-23T15:43:01;4.60;;;1.20;;
6999;SDS011;3540;53.242;10.408;2022-07-23T15:45:27;1.50;;;1.20;;
6999;SDS011;3540;53.242;10.408;2022-07-23T15:47:53;1.23;;;1.00;;
6999;SDS011;3540;53.242;10.408;2022-07-23T15:50:19;2.42;;;1.10;;
6999;SDS011;3540;53.242;10.408;2022-07-23T15:52:45;2.97;;;1.23;;
6999;SDS011;3540;53.242;10.408;2022-07-23T15:55:11;2.97;;;1.00;;